Norse Mersey — IBEN — position and weather

sailwx.info

Track history (hours):
 
Tides and Currents Weather Stations Pressure Air Temp Water Temp Dewpoint Dewpoint Depression Visibility Wind Speed Wind Dir Waves Ship Positions

Norse Mersey

Operator: Norse Merchant Ferries

Last reported at 2017-Nov-23 05:38 UTC. Time now 2017-Nov-23 20:49 UTC.
Position N 39°29' E 015°08'.

Length 175 m; draft 5.2 m.

Type: Ship (hazmat cat A). MMSI: 247026000.

Date/timePositionNaut miles runAvg speedWind from/ knotsBaromVisibWave heightAir tempDewpointWater temp
2017-Nov-23 05:38N 39°29' E 015°08'316.1
2017-Nov-23 05:27N 39°27' E 015°09'6115.9
2017-Nov-23 01:36N 38°30' E 015°37'216.1
2017-Nov-23 01:30N 38°28' E 015°38'816.1
2017-Nov-23 01:00N 38°21' E 015°42'612.1
2017-Nov-23 00:29N 38°15' E 015°39'714.1
2017-Nov-23 00:00N 38°08' E 015°36'816.0
2017-Nov-22 23:29N 38°00' E 015°34'  
2017-Nov-19 06:55N 37°54' E 015°26'916.2
2017-Nov-19 06:23N 38°02' E 015°30'616.0
2017-Nov-19 06:00N 38°08' E 015°34'1213.4
2017-Nov-19 05:07N 38°18' E 015°41'216.1
2017-Nov-19 05:00N 38°20' E 015°40'815.8
2017-Nov-19 04:29N 38°28' E 015°36'2416.2
2017-Nov-19 03:01N 38°50' E 015°26'016.6
2017-Nov-19 03:00N 38°50' E 015°26'3715.9
2017-Nov-19 00:42N 39°24' E 015°08'415.9
2017-Nov-19 00:25N 39°29' E 015°07'1 0.1
2017-Nov-18 07:37N 39°28' E 015°08'216.0
2017-Nov-18 07:30N 39°26' E 015°09'3516.0
2017-Nov-18 05:18N 38°53' E 015°26'515.6
2017-Nov-18 05:00N 38°49' E 015°28'815.5
2017-Nov-18 04:30N 38°42' E 015°31'815.7
2017-Nov-18 04:00N 38°34' E 015°34'815.8
2017-Nov-18 03:30N 38°27' E 015°38'816.2
2017-Nov-18 03:00N 38°20' E 015°43'713.1
2017-Nov-18 02:30N 38°14' E 015°38'815.3
2017-Nov-18 02:00N 38°07' E 015°36'715.0
2017-Nov-18 01:30N 37°60' E 015°33'815.6
2017-Nov-18 00:59N 37°53' E 015°28'12 1.1
2017-Nov-17 13:32N 37°43' E 015°19'215.6
2017-Nov-17 13:22N 37°45' E 015°20'616.0
2017-Nov-17 13:00N 37°50' E 015°23'815.5
2017-Nov-17 12:30N 37°57' E 015°28'815.3
2017-Nov-17 12:00N 38°04' E 015°32'816.4
2017-Nov-17 11:30N 38°12' E 015°36'714.6
2017-Nov-17 11:00N 38°18' E 015°40'4 8.9
2017-Nov-17 10:30N 38°22' E 015°39'815.7
2017-Nov-17 10:00N 38°30' E 015°35'815.7
2017-Nov-17 09:30N 38°37' E 015°32'815.8
2017-Nov-17 09:00N 38°45' E 015°28'1515.9
2017-Nov-17 08:02N 38°59' E 015°21'32 1.5
2017-Nov-16 10:02N 39°29' E 015°07'316.0
2017-Nov-16 09:51N 39°26' E 015°08'3516.0
2017-Nov-16 07:41N 38°54' E 015°24'315.7
2017-Nov-16 07:29N 38°51' E 015°26'815.7
2017-Nov-16 06:58N 38°44' E 015°30'715.8
2017-Nov-16 06:30N 38°37' E 015°33'816.0
2017-Nov-16 06:00N 38°29' E 015°37'816.0
2017-Nov-16 05:30N 38°22' E 015°41'713.5
2017-Nov-16 05:00N 38°15' E 015°41'714.6
2017-Nov-16 04:30N 38°09' E 015°36'815.7
2017-Nov-16 04:00N 38°01' E 015°35'815.7
2017-Nov-16 03:30N 37°54' E 015°30'916.0
2017-Nov-16 02:56N 37°46' E 015°24'10 0.8
2017-Nov-15 14:18N 37°38' E 015°17'615.8
2017-Nov-15 13:55N 37°44' E 015°20'715.8
2017-Nov-15 13:29N 37°50' E 015°23'815.3
2017-Nov-15 13:00N 37°57' E 015°28'714.7
2017-Nov-15 12:30N 38°03' E 015°32'713.8
2017-Nov-15 12:00N 38°10' E 015°35'714.0
2017-Nov-15 11:30N 38°16' E 015°39'714.0
2017-Nov-15 11:00N 38°23' E 015°38'815.0
2017-Nov-15 10:30N 38°30' E 015°35'714.9
2017-Nov-15 10:01N 38°37' E 015°32'915.0
2017-Nov-15 09:26N 38°45' E 015°28'715.2
2017-Nov-15 08:58N 38°51' E 015°24'3615.0
2017-Nov-15 06:36N 39°25' E 015°09'215.3
2017-Nov-15 06:30N 39°26' E 015°08'51 2.3
2017-Nov-14 08:21N 38°39' E 015°33'615.7
2017-Nov-14 07:59N 38°34' E 015°35'715.4
2017-Nov-14 07:30N 38°27' E 015°39'815.6
2017-Nov-14 07:00N 38°20' E 015°42'611.9
2017-Nov-14 06:30N 38°15' E 015°38'714.9
2017-Nov-14 06:00N 38°07' E 015°36'815.8
2017-Nov-14 05:31N 37°60' E 015°33'815.5
2017-Nov-14 04:58N 37°53' E 015°28'  
Track history (hours):
 
Tides and Currents Weather Stations Pressure Air Temp Water Temp Dewpoint Dewpoint Depression Visibility Wind Speed Wind Dir Waves Ship Positions

Norse Mersey

Operator: Norse Merchant Ferries

Last reported at 2017-Nov-23 05:38 UTC. Time now 2017-Nov-23 20:49 UTC.
Position N 39°29' E 015°08'.

Length 175 m; draft 5.2 m.

Type: Ship (hazmat cat A). MMSI: 247026000.

Date/timePositionNaut miles runAvg speedWind from/ knotsBaromVisibWave heightAir tempDewpointWater temp
2017-Nov-23 05:38N 39°29' E 015°08'316.1
2017-Nov-23 05:27N 39°27' E 015°09'6115.9
2017-Nov-23 01:36N 38°30' E 015°37'216.1
2017-Nov-23 01:30N 38°28' E 015°38'816.1
2017-Nov-23 01:00N 38°21' E 015°42'612.1
2017-Nov-23 00:29N 38°15' E 015°39'714.1
2017-Nov-23 00:00N 38°08' E 015°36'816.0
2017-Nov-22 23:29N 38°00' E 015°34'  
2017-Nov-19 06:55N 37°54' E 015°26'916.2
2017-Nov-19 06:23N 38°02' E 015°30'616.0
2017-Nov-19 06:00N 38°08' E 015°34'1213.4
2017-Nov-19 05:07N 38°18' E 015°41'216.1
2017-Nov-19 05:00N 38°20' E 015°40'815.8
2017-Nov-19 04:29N 38°28' E 015°36'2416.2
2017-Nov-19 03:01N 38°50' E 015°26'016.6
2017-Nov-19 03:00N 38°50' E 015°26'3715.9
2017-Nov-19 00:42N 39°24' E 015°08'415.9
2017-Nov-19 00:25N 39°29' E 015°07'1 0.1
2017-Nov-18 07:37N 39°28' E 015°08'216.0
2017-Nov-18 07:30N 39°26' E 015°09'3516.0
2017-Nov-18 05:18N 38°53' E 015°26'515.6
2017-Nov-18 05:00N 38°49' E 015°28'815.5
2017-Nov-18 04:30N 38°42' E 015°31'815.7
2017-Nov-18 04:00N 38°34' E 015°34'815.8
2017-Nov-18 03:30N 38°27' E 015°38'816.2
2017-Nov-18 03:00N 38°20' E 015°43'713.1
2017-Nov-18 02:30N 38°14' E 015°38'815.3
2017-Nov-18 02:00N 38°07' E 015°36'715.0
2017-Nov-18 01:30N 37°60' E 015°33'815.6
2017-Nov-18 00:59N 37°53' E 015°28'12 1.1
2017-Nov-17 13:32N 37°43' E 015°19'215.6
2017-Nov-17 13:22N 37°45' E 015°20'616.0
2017-Nov-17 13:00N 37°50' E 015°23'815.5
2017-Nov-17 12:30N 37°57' E 015°28'815.3
2017-Nov-17 12:00N 38°04' E 015°32'816.4
2017-Nov-17 11:30N 38°12' E 015°36'714.6
2017-Nov-17 11:00N 38°18' E 015°40'4 8.9
2017-Nov-17 10:30N 38°22' E 015°39'815.7
2017-Nov-17 10:00N 38°30' E 015°35'815.7
2017-Nov-17 09:30N 38°37' E 015°32'815.8
2017-Nov-17 09:00N 38°45' E 015°28'1515.9
2017-Nov-17 08:02N 38°59' E 015°21'32 1.5
2017-Nov-16 10:02N 39°29' E 015°07'316.0
2017-Nov-16 09:51N 39°26' E 015°08'3516.0
2017-Nov-16 07:41N 38°54' E 015°24'315.7
2017-Nov-16 07:29N 38°51' E 015°26'815.7
2017-Nov-16 06:58N 38°44' E 015°30'715.8
2017-Nov-16 06:30N 38°37' E 015°33'816.0
2017-Nov-16 06:00N 38°29' E 015°37'816.0
2017-Nov-16 05:30N 38°22' E 015°41'713.5
2017-Nov-16 05:00N 38°15' E 015°41'714.6
2017-Nov-16 04:30N 38°09' E 015°36'815.7
2017-Nov-16 04:00N 38°01' E 015°35'815.7
2017-Nov-16 03:30N 37°54' E 015°30'916.0
2017-Nov-16 02:56N 37°46' E 015°24'10 0.8
2017-Nov-15 14:18N 37°38' E 015°17'615.8
2017-Nov-15 13:55N 37°44' E 015°20'715.8
2017-Nov-15 13:29N 37°50' E 015°23'815.3
2017-Nov-15 13:00N 37°57' E 015°28'714.7
2017-Nov-15 12:30N 38°03' E 015°32'713.8
2017-Nov-15 12:00N 38°10' E 015°35'714.0
2017-Nov-15 11:30N 38°16' E 015°39'714.0
2017-Nov-15 11:00N 38°23' E 015°38'815.0
2017-Nov-15 10:30N 38°30' E 015°35'714.9
2017-Nov-15 10:01N 38°37' E 015°32'915.0
2017-Nov-15 09:26N 38°45' E 015°28'715.2
2017-Nov-15 08:58N 38°51' E 015°24'3615.0
2017-Nov-15 06:36N 39°25' E 015°09'215.3
2017-Nov-15 06:30N 39°26' E 015°08'51 2.3
2017-Nov-14 08:21N 38°39' E 015°33'615.7
2017-Nov-14 07:59N 38°34' E 015°35'715.4
2017-Nov-14 07:30N 38°27' E 015°39'815.6
2017-Nov-14 07:00N 38°20' E 015°42'611.9
2017-Nov-14 06:30N 38°15' E 015°38'714.9
2017-Nov-14 06:00N 38°07' E 015°36'815.8
2017-Nov-14 05:31N 37°60' E 015°33'815.5
2017-Nov-14 04:58N 37°53' E 015°28'  

Dump ship's entire track history